createdAt,value
2022-10-20T00:02:18.722Z,100013.28
2022-10-20T00:04:46.453Z,100003.91
2022-10-20T00:07:13.251Z,100016.72
2022-10-20T00:09:40.061Z,100016.16
2022-10-20T00:12:06.837Z,100031.22
2022-10-20T00:14:33.615Z,100015.31
2022-10-20T00:17:01.595Z,100020.31
2022-10-20T00:19:29.101Z,100011.94
2022-10-20T00:21:56.636Z,100020.00
2022-10-20T00:24:23.411Z,100021.09
2022-10-20T00:26:50.242Z,100010.97
2022-10-20T00:31:44.756Z,99974.97
2022-10-20T00:34:12.206Z,99988.25
2022-10-20T00:36:39.753Z,100004.69
2022-10-20T00:39:07.264Z,100006.03
2022-10-20T00:41:34.540Z,99989.47
2022-10-20T00:44:22.869Z,99979.78
2022-10-20T00:46:49.864Z,99979.06
2022-10-20T00:49:22.359Z,99975.56
2022-10-20T00:51:51.331Z,99988.94
2022-10-20T00:54:25.704Z,99971.53
2022-10-20T00:56:55.539Z,99995.38
2022-10-20T00:59:26.527Z,99991.13
2022-10-20T01:01:55.061Z,99979.78
2022-10-20T01:04:22.925Z,99968.84
2022-10-20T01:06:49.855Z,99977.38
2022-10-20T01:09:16.847Z,99976.03
2022-10-20T01:11:46.565Z,99975.78
2022-10-20T01:14:31.803Z,99969.75
2022-10-20T01:17:10.914Z,99960.59
2022-10-20T01:20:07.765Z,99957.88
2022-10-20T01:22:53.349Z,99962.38
2022-10-20T01:25:50.587Z,99958.22
2022-10-20T01:28:34.731Z,99931.78
2022-10-20T01:31:05.829Z,99926.19
2022-10-20T01:33:54.765Z,99910.88
2022-10-20T01:36:31.285Z,99923.91
2022-10-20T01:39:06.561Z,99932.78
2022-10-20T01:41:43.739Z,99918.59
2022-10-20T01:44:14.777Z,99915.53
2022-10-20T01:46:43.350Z,99898.03
2022-10-20T01:49:11.763Z,99914.34
2022-10-20T01:51:38.632Z,99879.31
2022-10-20T01:54:05.785Z,99891.31
2022-10-20T01:57:04.349Z,99908.16
2022-10-20T01:59:49.143Z,99902.41
2022-10-20T02:02:45.508Z,99914.06
2022-10-20T02:05:24.228Z,99919.75
2022-10-20T02:07:54.136Z,99893.41
2022-10-20T02:10:27.924Z,99914.13
2022-10-20T02:12:59.513Z,99913.69
2022-10-20T02:15:28.442Z,99878.41
2022-10-20T02:18:00.429Z,99913.06
2022-10-20T02:20:29.629Z,99906.06
2022-10-20T02:22:58.717Z,99896.03
2022-10-20T02:25:27.565Z,99904.16
2022-10-20T02:27:56.438Z,99902.75
2022-10-20T02:30:23.412Z,99896.03
2022-10-20T02:32:52.979Z,99915.25
2022-10-20T02:35:27.330Z,99916.09
2022-10-20T02:37:54.202Z,99910.34
2022-10-20T02:40:22.441Z,99907.81
2022-10-20T02:42:49.776Z,99919.31
2022-10-20T02:45:16.780Z,99918.78
2022-10-20T02:47:43.703Z,99924.25
2022-10-20T02:50:10.721Z,99920.97
2022-10-20T02:52:38.135Z,99916.94
2022-10-20T02:55:06.227Z,99867.47
2022-10-20T02:57:33.561Z,99914.16
2022-10-20T03:00:00.435Z,99916.88
2022-10-20T03:02:27.244Z,99910.69
2022-10-20T03:04:54.229Z,99915.66
2022-10-20T03:07:20.982Z,99920.88
2022-10-20T03:09:47.842Z,99899.63
2022-10-20T03:12:14.701Z,99905.16
2022-10-20T03:14:43.005Z,99917.78
2022-10-20T03:17:10.105Z,99919.47
2022-10-20T03:19:37.247Z,99910.16
2022-10-20T03:22:03.994Z,99902.59
2022-10-20T03:24:30.746Z,99916.56
2022-10-20T03:26:57.556Z,99921.75
2022-10-20T03:29:24.297Z,99913.13
2022-10-20T03:31:51.089Z,99904.69
2022-10-20T03:34:17.875Z,99892.38
2022-10-20T03:36:44.658Z,99909.94
2022-10-20T03:39:11.515Z,99882.88
2022-10-20T03:41:38.295Z,99908.69
2022-10-20T03:44:05.189Z,99908.13
2022-10-20T03:46:31.881Z,99904.38
2022-10-20T03:48:58.736Z,99913.25
2022-10-20T03:51:25.582Z,99874.56
2022-10-20T03:53:52.353Z,99896.09
2022-10-20T03:56:20.476Z,99906.19
2022-10-20T03:58:47.727Z,99903.38
2022-10-20T04:01:20.346Z,99908.91
2022-10-20T04:03:47.264Z,99903.47
2022-10-20T04:06:14.940Z,99891.78
2022-10-20T04:08:41.854Z,99876.06
2022-10-20T04:11:08.982Z,99892.31
2022-10-20T04:13:35.857Z,99892.53
2022-10-20T04:16:02.592Z,99866.31
2022-10-20T04:18:29.355Z,99876.66
2022-10-20T04:20:59.240Z,99873.03
2022-10-20T04:23:26.126Z,99881.41
2022-10-20T04:25:52.961Z,99879.03
2022-10-20T04:28:21.084Z,99860.13
2022-10-20T04:30:49.095Z,99864.09
2022-10-20T04:33:16.451Z,99871.09
2022-10-20T04:35:46.370Z,99872.09
2022-10-20T04:38:14.198Z,99872.63
2022-10-20T04:40:41.098Z,99860.19
2022-10-20T04:43:10.022Z,99861.50
2022-10-20T04:45:37.364Z,99870.16
2022-10-20T04:48:05.540Z,99855.31
2022-10-20T04:50:34.962Z,99846.22
2022-10-20T04:53:01.752Z,99837.91
2022-10-20T04:55:28.493Z,99832.50
2022-10-20T04:57:55.221Z,99838.66
2022-10-20T05:00:22.010Z,99835.47
2022-10-20T05:02:48.742Z,99835.84
2022-10-20T05:05:15.612Z,99824.69
2022-10-20T05:07:42.490Z,99847.97
2022-10-20T05:10:10.292Z,99841.59
2022-10-20T05:12:38.559Z,99840.06
2022-10-20T05:15:05.890Z,99848.06
2022-10-20T05:17:34.082Z,99843.28
2022-10-20T05:20:01.263Z,99811.28
2022-10-20T05:22:35.858Z,99776.53
2022-10-20T05:25:37.090Z,99770.19
2022-10-20T05:28:05.135Z,99830.13
2022-10-20T05:30:34.479Z,99837.16
2022-10-20T05:33:02.807Z,99817.66
2022-10-20T05:35:29.640Z,99852.69
2022-10-20T05:38:08.008Z,99820.91
2022-10-20T05:40:42.206Z,99858.34
2022-10-20T05:43:09.023Z,99832.13
2022-10-20T05:45:35.772Z,99834.47
2022-10-20T05:48:02.551Z,99858.69
2022-10-20T05:50:29.440Z,99860.59
2022-10-20T05:52:56.284Z,99858.03
2022-10-20T05:55:23.277Z,99861.44
2022-10-20T05:57:51.164Z,99861.19
2022-10-20T06:00:23.905Z,99868.44
2022-10-20T06:02:54.299Z,99852.50
2022-10-20T06:05:20.995Z,99858.97
2022-10-20T06:07:47.726Z,99856.53
2022-10-20T06:10:14.472Z,99836.50
2022-10-20T06:12:41.125Z,99840.56
2022-10-20T06:15:08.365Z,99849.34
2022-10-20T06:17:35.070Z,99851.13
2022-10-20T06:20:01.823Z,99865.81
2022-10-20T06:22:28.596Z,99867.28
2022-10-20T06:24:55.286Z,99862.50
2022-10-20T06:27:22.009Z,99840.94
2022-10-20T06:29:48.893Z,99857.13
2022-10-20T06:32:18.482Z,99835.56
2022-10-20T06:34:45.321Z,99846.38
2022-10-20T06:37:12.055Z,99863.72
2022-10-20T06:39:38.759Z,99868.78
2022-10-20T06:42:09.576Z,99837.22
2022-10-20T06:44:38.706Z,99867.72
2022-10-20T06:47:10.501Z,99839.19
2022-10-20T06:49:37.312Z,99858.38
2022-10-20T06:52:04.411Z,99867.13
2022-10-20T06:54:31.364Z,99869.09
2022-10-20T06:56:58.052Z,99867.63
2022-10-20T06:59:24.814Z,99856.91
2022-10-20T07:01:53.050Z,99867.19
2022-10-20T07:04:19.862Z,99851.50
2022-10-20T07:06:47.377Z,99864.97
2022-10-20T07:09:19.703Z,99868.41
2022-10-20T07:11:51.294Z,99850.19
2022-10-20T07:14:18.016Z,99842.50
2022-10-20T07:16:44.775Z,99854.13
2022-10-20T07:19:11.850Z,99851.38
2022-10-20T07:21:41.534Z,99824.69
2022-10-20T07:24:10.412Z,99824.41
2022-10-20T07:26:39.955Z,99824.56
2022-10-20T07:29:06.856Z,99823.94
2022-10-20T07:31:39.897Z,99818.28
2022-10-20T07:34:26.763Z,99835.44
2022-10-20T07:36:55.688Z,99781.56
2022-10-20T07:39:22.732Z,99830.75
2022-10-20T07:41:50.061Z,99815.25
2022-10-20T07:44:17.170Z,99836.44
2022-10-20T07:46:47.021Z,99826.75
2022-10-20T07:52:00.834Z,99838.34
2022-10-20T07:54:27.563Z,99820.16
2022-10-20T07:56:54.278Z,99823.34
2022-10-20T07:59:21.096Z,99816.91
2022-10-20T08:01:48.245Z,99827.88
2022-10-20T08:04:15.054Z,99821.81
2022-10-20T08:06:42.078Z,99824.25
2022-10-20T08:09:09.103Z,99813.31
2022-10-20T08:11:36.263Z,99809.25
2022-10-20T08:14:03.293Z,99788.19
2022-10-20T08:16:33.459Z,99801.19
2022-10-20T08:19:11.689Z,99758.69
2022-10-20T08:21:38.438Z,99778.56
2022-10-20T08:24:05.423Z,99783.69
2022-10-20T08:26:32.133Z,99793.41
2022-10-20T08:28:58.858Z,99792.06
2022-10-20T08:31:25.921Z,99784.50
2022-10-20T08:33:53.259Z,99798.13
2022-10-20T08:36:21.214Z,99782.38
2022-10-20T08:38:48.783Z,99789.50
2022-10-20T08:41:21.191Z,99783.53
2022-10-20T08:43:50.577Z,99769.41
2022-10-20T08:46:20.348Z,99781.00
2022-10-20T08:48:48.183Z,99781.00
2022-10-20T08:51:21.093Z,99767.41
2022-10-20T08:53:51.876Z,99764.97
2022-10-20T08:56:23.067Z,99767.13
2022-10-20T08:58:49.862Z,99766.13
2022-10-20T09:01:26.178Z,99774.63
2022-10-20T09:03:57.774Z,99768.06
2022-10-20T09:06:24.993Z,99760.13
2022-10-20T09:08:52.523Z,99778.13
2022-10-20T09:11:24.424Z,99772.88
2022-10-20T09:13:51.608Z,99767.75
2022-10-20T09:16:40.691Z,99782.38
2022-10-20T09:19:20.583Z,99771.03
2022-10-20T09:21:52.593Z,99759.41
2022-10-20T09:24:22.007Z,99768.47
2022-10-20T09:26:59.992Z,99775.22
2022-10-20T09:29:39.146Z,99767.97
2022-10-20T09:32:52.675Z,99772.22
2022-10-20T09:35:24.196Z,99772.50
2022-10-20T09:37:55.036Z,99757.38
2022-10-20T09:40:22.932Z,99761.22
2022-10-20T09:43:18.289Z,99741.22
2022-10-20T09:45:56.340Z,99740.31
2022-10-20T09:48:33.151Z,99731.78
2022-10-20T09:51:00.778Z,99722.56
2022-10-20T09:53:32.654Z,99728.88
2022-10-20T09:55:59.756Z,99712.91
2022-10-20T09:58:39.344Z,99723.00
2022-10-20T10:01:12.134Z,99730.69
2022-10-20T10:03:41.262Z,99722.63
2022-10-20T10:06:28.296Z,99731.69
2022-10-20T10:08:56.611Z,99716.69
2022-10-20T10:11:35.853Z,99712.09
2022-10-20T10:14:03.647Z,99729.44
2022-10-20T10:16:41.459Z,99704.78
2022-10-20T10:21:55.782Z,99714.50
2022-10-20T10:24:40.969Z,99716.25
2022-10-20T10:27:22.713Z,99710.53
2022-10-20T10:29:49.690Z,99687.31
2022-10-20T10:32:19.547Z,99680.31
2022-10-20T10:35:23.107Z,99689.16
2022-10-20T10:37:50.348Z,99687.31
2022-10-20T10:40:20.034Z,99682.22
2022-10-20T10:42:49.807Z,99674.47
2022-10-20T10:45:24.188Z,99606.56
2022-10-20T10:48:00.707Z,99655.81
2022-10-20T10:50:33.858Z,99660.00
2022-10-20T10:53:25.211Z,99652.44
2022-10-20T10:56:10.661Z,99657.38
2022-10-20T10:58:40.094Z,99642.91
2022-10-20T11:01:18.931Z,99650.91
2022-10-20T11:04:20.164Z,99637.19
2022-10-20T11:06:58.025Z,99642.50
2022-10-20T11:09:46.645Z,99633.72
2022-10-20T11:12:26.446Z,99624.09
2022-10-20T11:15:30.618Z,99630.94
2022-10-20T11:18:19.373Z,99623.06
2022-10-20T11:20:59.700Z,99621.91
2022-10-20T11:24:04.600Z,99610.41
2022-10-20T11:26:47.959Z,99603.03
2022-10-20T11:29:25.225Z,99547.91
2022-10-20T11:32:18.557Z,99594.56
2022-10-20T11:35:13.746Z,99574.13
2022-10-20T11:37:43.460Z,99576.50
2022-10-20T11:40:10.132Z,99580.63
2022-10-20T11:42:52.841Z,99581.69
2022-10-20T11:45:25.381Z,99573.34
2022-10-20T11:48:21.471Z,99562.53
2022-10-20T11:51:17.453Z,99572.38
2022-10-20T11:54:13.491Z,99557.25
2022-10-20T11:56:43.105Z,99564.94
2022-10-20T11:59:35.053Z,99564.88
2022-10-20T12:02:49.301Z,99540.94
2022-10-20T12:05:48.169Z,99527.81
2022-10-20T12:08:39.020Z,99518.19
2022-10-20T12:11:14.714Z,99517.53
2022-10-20T12:14:14.341Z,99525.31
2022-10-20T12:16:58.411Z,99514.88
2022-10-20T12:19:31.280Z,99521.47
2022-10-20T12:22:04.148Z,99511.03
2022-10-20T12:24:30.801Z,99509.81
2022-10-20T12:27:17.936Z,99500.34
2022-10-20T12:29:44.592Z,99505.75
2022-10-20T12:32:29.853Z,99513.03
2022-10-20T12:35:02.042Z,99495.59
2022-10-20T12:37:34.652Z,99491.75
2022-10-20T12:40:07.822Z,99492.47
2022-10-20T12:42:39.089Z,99486.19
2022-10-20T12:45:09.161Z,99479.78
2022-10-20T12:47:37.599Z,99466.94
2022-10-20T12:50:31.362Z,99472.00
2022-10-20T12:53:10.932Z,99455.81
2022-10-20T12:55:41.917Z,99450.22
2022-10-20T12:58:18.270Z,99455.81
2022-10-20T13:00:48.333Z,99455.31
2022-10-20T13:03:47.006Z,99459.53
2022-10-20T13:06:22.575Z,99467.31
2022-10-20T13:09:04.960Z,99462.06
2022-10-20T13:11:37.889Z,99454.97
2022-10-20T13:14:27.650Z,99451.59
2022-10-20T13:17:09.623Z,99446.50
2022-10-20T13:20:01.169Z,99447.69
2022-10-20T13:22:38.250Z,99446.03
2022-10-20T13:25:28.108Z,99440.09
2022-10-20T13:28:13.284Z,99439.78
2022-10-20T13:31:05.755Z,99446.19
2022-10-20T13:34:08.666Z,99445.31
2022-10-20T13:36:38.247Z,99444.13
2022-10-20T13:39:33.633Z,99439.75
2022-10-20T13:42:06.484Z,99425.19
2022-10-20T13:44:52.413Z,99408.63
2022-10-20T13:47:31.096Z,99434.69
2022-10-20T13:50:14.644Z,99425.53
2022-10-20T13:52:47.453Z,99430.44
2022-10-20T13:55:27.183Z,99432.81
2022-10-20T13:58:07.640Z,99428.75
2022-10-20T14:00:36.430Z,99423.50
2022-10-20T14:03:15.633Z,99428.75
2022-10-20T14:05:42.562Z,99393.47
2022-10-20T14:08:17.115Z,99424.19
2022-10-20T14:10:55.200Z,99424.53
2022-10-20T14:13:34.628Z,99409.34
2022-10-20T14:16:08.217Z,99419.31
2022-10-20T14:18:39.703Z,99411.84
2022-10-20T14:21:19.959Z,99409.88
2022-10-20T14:23:49.314Z,99408.84
2022-10-20T14:26:19.840Z,99388.22
2022-10-20T14:28:48.878Z,99397.34
2022-10-20T14:31:16.384Z,99386.75
2022-10-20T14:33:48.089Z,99388.09
2022-10-20T14:39:01.019Z,99400.56
2022-10-20T14:41:34.103Z,99374.03
2022-10-20T14:44:06.790Z,99362.06
2022-10-20T14:46:40.554Z,99374.22
2022-10-20T14:49:22.865Z,99354.78
2022-10-20T14:52:12.458Z,99360.91
2022-10-20T14:54:39.980Z,99356.16
2022-10-20T14:57:09.581Z,99366.47
2022-10-20T14:59:49.649Z,99354.31
2022-10-20T15:02:19.447Z,99375.91
2022-10-20T15:04:48.579Z,99373.22
2022-10-20T15:07:32.914Z,99384.34
2022-10-20T15:10:25.392Z,99387.50
2022-10-20T15:12:54.245Z,99374.81
2022-10-20T15:15:36.142Z,99366.38
2022-10-20T15:18:18.549Z,99345.09
2022-10-20T15:20:47.966Z,99345.44
2022-10-20T15:23:27.024Z,99346.28
2022-10-20T15:26:11.096Z,99344.56
2022-10-20T15:28:47.793Z,99341.50
2022-10-20T15:31:27.290Z,99345.88
2022-10-20T15:33:56.127Z,99333.53
2022-10-20T15:36:29.619Z,99338.91
2022-10-20T15:38:57.042Z,99328.09
2022-10-20T15:41:35.448Z,99334.28
2022-10-20T15:44:10.801Z,99340.00
2022-10-20T15:46:37.541Z,99338.47
2022-10-20T15:49:04.624Z,99330.16
2022-10-20T15:51:34.805Z,99324.75
2022-10-20T15:54:02.409Z,99347.00
2022-10-20T15:56:29.550Z,99338.50
2022-10-20T15:58:56.439Z,99326.94
2022-10-20T16:01:23.572Z,99320.31
2022-10-20T16:03:51.611Z,99344.22
2022-10-20T16:06:19.223Z,99334.31
2022-10-20T16:08:48.474Z,99336.16
2022-10-20T16:11:16.854Z,99335.63
2022-10-20T16:13:44.038Z,99320.03
2022-10-20T16:16:17.248Z,99332.09
2022-10-20T16:18:45.015Z,99330.28
2022-10-20T16:21:12.762Z,99327.03
2022-10-20T16:23:42.309Z,99305.81
2022-10-20T16:26:13.735Z,99321.09
2022-10-20T16:28:40.892Z,99324.78
2022-10-20T16:31:10.761Z,99311.00
2022-10-20T16:33:38.246Z,99328.97
2022-10-20T16:38:40.485Z,99330.91
2022-10-20T16:41:10.614Z,99338.50
2022-10-20T16:43:42.062Z,99328.84
2022-10-20T16:46:10.338Z,99324.16
2022-10-20T16:48:40.437Z,99329.47
2022-10-20T16:51:11.504Z,99325.88
2022-10-20T16:53:39.160Z,99331.25
2022-10-20T16:56:07.106Z,99331.25
2022-10-20T16:58:37.341Z,99339.88
2022-10-20T17:01:11.273Z,99329.56
2022-10-20T17:03:44.993Z,99351.31
2022-10-20T17:06:14.700Z,99357.09
2022-10-20T17:08:42.545Z,99354.56
2022-10-20T17:11:14.897Z,99349.31
2022-10-20T17:13:42.038Z,99348.75
2022-10-20T17:16:34.067Z,99336.25
2022-10-20T17:19:05.263Z,99342.06
2022-10-20T17:21:35.984Z,99342.03
2022-10-20T17:24:04.251Z,99344.94
2022-10-20T17:26:32.960Z,99326.41
2022-10-20T17:29:02.012Z,99336.94
2022-10-20T17:31:30.103Z,99332.13
2022-10-20T17:34:00.873Z,99338.63
2022-10-20T17:36:30.852Z,99334.25
2022-10-20T17:38:59.651Z,99344.28
2022-10-20T17:41:27.556Z,99334.84
2022-10-20T17:43:55.360Z,99336.25
2022-10-20T17:46:23.234Z,99318.22
2022-10-20T17:48:50.661Z,99342.16
2022-10-20T17:51:20.666Z,99345.06
2022-10-20T17:53:49.153Z,99333.50
2022-10-20T17:56:20.346Z,99329.16
2022-10-20T17:58:49.411Z,99332.13
2022-10-20T18:01:20.505Z,99320.31
2022-10-20T18:03:50.379Z,99324.53
2022-10-20T18:06:20.485Z,99343.25
2022-10-20T18:08:53.018Z,99338.00
2022-10-20T18:11:24.426Z,99336.09
2022-10-20T18:13:52.391Z,99330.53
2022-10-20T18:16:21.754Z,99332.69
2022-10-20T18:18:51.187Z,99330.00
2022-10-20T18:21:20.191Z,99332.50
2022-10-20T18:23:48.971Z,99333.19
2022-10-20T18:26:23.005Z,99334.84
2022-10-20T18:28:51.433Z,99332.47
2022-10-20T18:31:23.162Z,99328.66
2022-10-20T18:33:54.861Z,99339.72
2022-10-20T18:36:22.715Z,99343.84
2022-10-20T18:38:50.319Z,99335.41
2022-10-20T18:41:20.387Z,99331.72
2022-10-20T18:43:56.912Z,99338.00
2022-10-20T18:46:27.298Z,99319.59
2022-10-20T18:48:55.317Z,99341.53
2022-10-20T18:51:23.243Z,99331.78
2022-10-20T18:53:56.444Z,99301.84
2022-10-20T18:56:26.435Z,99325.63
2022-10-20T18:58:59.215Z,99330.16
2022-10-20T19:01:30.074Z,99310.13
2022-10-20T19:03:59.342Z,99294.00
2022-10-20T19:06:47.151Z,99319.84
2022-10-20T19:09:20.515Z,99323.09
2022-10-20T19:14:18.176Z,99305.59
2022-10-20T19:16:50.881Z,99321.69
2022-10-20T19:19:19.047Z,99323.94
2022-10-20T19:21:46.777Z,99325.38
2022-10-20T19:24:18.164Z,99315.06
2022-10-20T19:26:57.250Z,99304.88
2022-10-20T19:29:33.428Z,99316.88
2022-10-20T19:32:02.592Z,99310.13
2022-10-20T19:34:41.712Z,99292.59
2022-10-20T19:37:10.287Z,99285.69
2022-10-20T19:39:41.834Z,99290.94
2022-10-20T19:42:10.614Z,99293.88
2022-10-20T19:44:42.776Z,99305.00
2022-10-20T19:47:11.546Z,99279.78
2022-10-20T19:49:40.507Z,99285.69
2022-10-20T19:52:09.922Z,99250.06
2022-10-20T19:54:38.601Z,99263.97
2022-10-20T19:57:06.882Z,99265.38
2022-10-20T19:59:34.543Z,99261.72
2022-10-20T20:02:02.220Z,99273.56
2022-10-20T20:04:30.123Z,99258.31
2022-10-20T20:07:01.940Z,99257.78
2022-10-20T20:09:30.725Z,99236.31
2022-10-20T20:11:58.871Z,99242.25
2022-10-20T20:14:26.242Z,99253.25
2022-10-20T20:16:53.461Z,99267.34
2022-10-20T20:19:20.811Z,99265.97
2022-10-20T20:21:48.461Z,99260.31
2022-10-20T20:24:15.848Z,99248.31
2022-10-20T20:26:48.069Z,99268.25
2022-10-20T20:29:15.325Z,99244.88
2022-10-20T20:31:42.265Z,99261.09
2022-10-20T20:34:09.716Z,99259.84
2022-10-20T20:36:36.863Z,99254.19
2022-10-20T20:39:04.167Z,99249.66
2022-10-20T20:41:31.333Z,99254.31
2022-10-20T20:43:58.468Z,99275.75
2022-10-20T20:46:29.498Z,99258.69
2022-10-20T20:49:00.714Z,99281.00
2022-10-20T20:51:34.059Z,99271.41
2022-10-20T20:54:01.951Z,99276.06
2022-10-20T20:56:28.695Z,99268.16
2022-10-20T20:58:59.357Z,99263.06
2022-10-20T21:01:27.811Z,99275.50
2022-10-20T21:03:56.508Z,99268.16
2022-10-20T21:06:33.464Z,99261.66
2022-10-20T21:09:06.410Z,99230.91
2022-10-20T21:11:33.184Z,99251.06
2022-10-20T21:13:59.972Z,99230.47
2022-10-20T21:16:32.135Z,99237.69
2022-10-20T21:19:02.232Z,99240.94
2022-10-20T21:21:31.299Z,99263.78
2022-10-20T21:23:58.825Z,99260.38
2022-10-20T21:26:27.096Z,99261.22
2022-10-20T21:28:54.391Z,99266.75
2022-10-20T21:31:25.143Z,99251.50
2022-10-20T21:33:54.264Z,99232.59
2022-10-20T21:36:21.667Z,99239.22
2022-10-20T21:38:48.872Z,99259.13
2022-10-20T21:41:21.557Z,99263.34
2022-10-20T21:43:51.062Z,99265.31
2022-10-20T21:46:23.522Z,99265.44
2022-10-20T21:48:52.458Z,99255.66
2022-10-20T21:51:26.120Z,99264.97
2022-10-20T21:53:57.341Z,99252.13
2022-10-20T21:56:24.971Z,99229.97
2022-10-20T21:58:52.128Z,99231.34
2022-10-20T22:01:23.969Z,99245.44
2022-10-20T22:03:52.879Z,99231.03
2022-10-20T22:06:22.022Z,99241.06
2022-10-20T22:08:52.270Z,99249.91
2022-10-20T22:11:22.265Z,99243.56
2022-10-20T22:13:49.219Z,99242.53
2022-10-20T22:16:18.938Z,99226.63
2022-10-20T22:18:45.675Z,99215.97
2022-10-20T22:21:15.926Z,99223.69
2022-10-20T22:23:43.322Z,99212.19
2022-10-20T22:26:11.215Z,99227.66
2022-10-20T22:28:38.568Z,99219.59
2022-10-20T22:31:06.289Z,99205.66
2022-10-20T22:33:33.534Z,99208.72
2022-10-20T22:36:00.308Z,99215.84
2022-10-20T22:38:27.043Z,99214.28
2022-10-20T22:40:58.757Z,99209.59
2022-10-20T22:43:25.992Z,99223.53
2022-10-20T22:45:52.799Z,99207.63
2022-10-20T22:48:19.610Z,99211.03
2022-10-20T22:50:46.391Z,99200.25
2022-10-20T22:53:13.271Z,99200.13
2022-10-20T22:55:40.012Z,99180.59
2022-10-20T22:58:06.919Z,99164.19
2022-10-20T23:03:32.782Z,99203.78
2022-10-20T23:05:59.532Z,99200.78
2022-10-20T23:08:29.374Z,99181.03
2022-10-20T23:10:59.141Z,99200.09
2022-10-20T23:13:25.919Z,99205.81
2022-10-20T23:15:53.235Z,99196.09
2022-10-20T23:18:20.621Z,99201.06
2022-10-20T23:20:47.441Z,99202.63
2022-10-20T23:23:14.462Z,99185.44
2022-10-20T23:25:43.974Z,99189.63
2022-10-20T23:28:10.836Z,99195.56
2022-10-20T23:30:37.584Z,99166.16
2022-10-20T23:33:04.323Z,99186.72
2022-10-20T23:35:31.334Z,99175.81
2022-10-20T23:37:58.023Z,99176.31
2022-10-20T23:40:24.752Z,99184.66
2022-10-20T23:42:51.447Z,99165.44
2022-10-20T23:45:18.133Z,99187.66
2022-10-20T23:47:44.984Z,99169.09
2022-10-20T23:50:11.751Z,99177.88
2022-10-20T23:55:06.577Z,99179.63
2022-10-20T23:57:33.274Z,99184.03
2022-10-20T23:59:59.983Z,99170.78
